Time;durP1;ratioP1;P1;durP2;ratioP2;P2;SDS_P1;SDS_P2;PMS_P1;PMS_P2;Temp;Humidity;BMP_temperature;BMP_pressure;BME280_temperature;BME280_humidity;BME280_pressure;Samples;Min_cycle;Max_cycle;Signal;HPM_P1;HPM_P2
2021/12/16 00:09:20;;;;;;;12.23;11.10;;;8.00;91.90;;;;;;5097194;28;20474;-44
2021/12/16 00:31:27;;;;;;;12.33;11.23;;;7.50;93.00;;;;;;5077419;28;20746;-45
2021/12/16 00:34:03;;;;;;;13.60;12.30;;;7.50;93.20;;;;;;5076930;28;20503;-45
2021/12/16 00:36:36;;;;;;;12.93;11.73;;;7.40;93.70;;;;;;5076557;28;20434;-45
2021/12/16 00:39:11;;;;;;;13.20;11.80;;;7.40;93.60;;;;;;5081928;28;20446;-45
2021/12/16 00:41:43;;;;;;;12.27;11.07;;;7.40;93.70;;;;;;5096892;28;20421;-45
2021/12/16 00:44:36;;;;;;;14.03;12.27;;;7.40;93.80;;;;;;5096147;28;20749;-43
2021/12/16 00:49:43;;;;;;;13.00;11.70;;;7.30;93.90;;;;;;5096096;28;20458;-45
2021/12/16 00:55:12;;;;;;;11.77;10.63;;;7.30;93.90;;;;;;5091556;28;20443;-45
2021/12/16 00:57:38;;;;;;;11.83;10.73;;;7.30;94.00;;;;;;5090685;28;20411;-45
2021/12/16 01:00:11;;;;;;;12.43;11.00;;;7.20;94.00;;;;;;5096876;28;20450;-45
2021/12/16 01:55:44;;;;;;;15.00;12.90;;;6.90;94.90;;;;;;5101120;28;20455;-45
2021/12/16 01:58:23;;;;;;;14.67;12.97;;;6.90;95.00;;;;;;5101355;28;20411;-45
2021/12/16 02:01:18;;;;;;;14.63;12.47;;;6.90;95.00;;;;;;5100918;28;20430;-45
2021/12/16 02:04:00;;;;;;;14.33;11.37;;;6.90;95.10;;;;;;5099897;28;20817;-44
2021/12/16 02:09:06;;;;;;;15.43;12.97;;;6.90;95.20;;;;;;5100618;28;20419;-45
2021/12/16 02:36:26;;;;;;;13.77;12.17;;;6.90;95.10;;;;;;5100048;28;20403;-45
2021/12/16 02:38:55;;;;;;;14.23;11.87;;;6.90;95.00;;;;;;5100064;28;20442;-45
2021/12/16 02:41:24;;;;;;;13.17;11.20;;;6.90;95.00;;;;;;5099170;28;20452;-45
2021/12/16 02:44:14;;;;;;;13.37;11.87;;;6.90;95.00;;;;;;5099775;28;20430;-44
2021/12/16 02:49:29;;;;;;;12.90;11.50;;;6.90;95.00;;;;;;5099473;28;20461;-45
2021/12/16 02:51:57;;;;;;;13.97;12.53;;;6.90;95.00;;;;;;5099661;28;20427;-45
2021/12/16 02:54:24;;;;;;;14.43;12.43;;;6.90;95.00;;;;;;5099326;28;20226;-44
2021/12/16 02:56:50;;;;;;;14.57;12.90;;;6.90;95.00;;;;;;5099374;28;20425;-45
2021/12/16 02:59:19;;;;;;;12.87;10.90;;;6.90;95.00;;;;;;5099640;28;20417;-45
2021/12/16 03:01:48;;;;;;;18.03;12.47;;;6.90;94.90;;;;;;5099772;28;20191;-45
2021/12/16 03:04:15;;;;;;;15.50;12.83;;;6.90;95.00;;;;;;5098385;28;20457;-45
2021/12/16 03:06:45;;;;;;;16.77;13.50;;;6.90;95.00;;;;;;5099393;28;20520;-45
2021/12/16 03:09:14;;;;;;;14.27;12.77;;;6.90;95.00;;;;;;5098949;28;20405;-44
2021/12/16 03:12:27;;;;;;;14.03;12.30;;;6.90;95.10;;;;;;5098937;28;20461;-45
2021/12/16 03:14:43;;;;;;;13.83;12.13;;;6.90;95.10;;;;;;5099612;28;20533;-44
2021/12/16 03:22:19;;;;;;;15.10;12.57;;;6.80;95.10;;;;;;5098708;28;20430;-45
2021/12/16 03:27:43;;;;;;;14.10;11.67;;;6.80;95.20;;;;;;5098616;28;20435;-45
2021/12/16 03:38:07;;;;;;;13.63;11.90;;;6.80;95.10;;;;;;5097662;28;20267;-45
2021/12/16 03:40:36;;;;;;;13.20;11.80;;;6.80;95.10;;;;;;5098090;28;20499;-45
2021/12/16 03:43:20;;;;;;;13.60;11.40;;;6.80;95.10;;;;;;5098262;28;20522;-45
2021/12/16 03:48:48;;;;;;;13.90;11.63;;;6.80;95.20;;;;;;5097809;28;20480;-45
2021/12/16 03:51:25;;;;;;;15.47;13.77;;;6.80;95.20;;;;;;5098461;28;20515;-44
2021/12/16 03:53:54;;;;;;;15.37;12.07;;;6.80;95.20;;;;;;5098153;28;20525;-45
2021/12/16 03:56:23;;;;;;;16.17;12.57;;;6.80;95.10;;;;;;5097929;28;20415;-45
2021/12/16 03:58:49;;;;;;;15.30;12.93;;;6.80;95.20;;;;;;5097774;28;20832;-45
2021/12/16 04:01:32;;;;;;;14.27;11.97;;;6.80;95.20;;;;;;5096963;28;20419;-45
2021/12/16 04:03:58;;;;;;;12.63;11.00;;;6.80;95.20;;;;;;5099024;28;20821;-43
2021/12/16 04:06:29;;;;;;;13.10;10.87;;;6.80;95.20;;;;;;5097662;28;20423;-42
2021/12/16 04:08:57;;;;;;;15.00;12.00;;;6.80;95.20;;;;;;5097951;28;20526;-42
2021/12/16 04:11:38;;;;;;;16.43;13.10;;;6.80;95.10;;;;;;5097755;28;20738;-42
2021/12/16 04:14:11;;;;;;;13.33;11.20;;;6.80;95.10;;;;;;5096835;28;20513;-42
2021/12/16 04:16:40;;;;;;;14.43;12.20;;;6.80;95.10;;;;;;5095999;28;20516;-42
2021/12/16 04:19:11;;;;;;;14.37;11.83;;;6.80;95.10;;;;;;5096525;28;20817;-43
2021/12/16 04:21:41;;;;;;;14.63;11.10;;;6.80;95.10;;;;;;5096276;28;20832;-42
2021/12/16 04:24:10;;;;;;;12.83;11.47;;;6.80;95.20;;;;;;5096313;28;20566;-42
2021/12/16 04:26:38;;;;;;;13.00;11.40;;;6.80;95.20;;;;;;5095777;28;20422;-42
2021/12/16 04:29:06;;;;;;;14.63;11.73;;;6.80;95.20;;;;;;5096748;28;20473;-42
2021/12/16 04:31:32;;;;;;;14.67;12.20;;;6.70;95.20;;;;;;5097056;28;20565;-43
2021/12/16 04:33:58;;;;;;;15.07;12.80;;;6.70;95.30;;;;;;5097125;28;20457;-43
2021/12/16 04:36:27;;;;;;;12.50;10.67;;;6.70;95.40;;;;;;5096857;28;20813;-44
2021/12/16 04:38:55;;;;;;;14.80;13.03;;;6.70;95.50;;;;;;5097433;28;20848;-44
2021/12/16 04:41:21;;;;;;;16.60;13.30;;;6.60;95.50;;;;;;5097245;28;20413;-44
2021/12/16 04:43:50;;;;;;;16.73;13.23;;;6.60;95.50;;;;;;5094506;28;20519;-44
2021/12/16 04:46:23;;;;;;;15.83;11.77;;;6.60;95.60;;;;;;5086350;28;20418;-43
2021/12/16 04:48:55;;;;;;;13.80;11.43;;;6.60;95.60;;;;;;5076638;28;20442;-43
2021/12/16 04:51:26;;;;;;;16.83;12.70;;;6.60;95.60;;;;;;5077603;28;20470;-44
2021/12/16 04:53:52;;;;;;;15.20;12.23;;;6.60;95.60;;;;;;5076664;28;20424;-43
2021/12/16 04:56:18;;;;;;;15.50;12.37;;;6.60;95.70;;;;;;5076896;28;20421;-43
2021/12/16 04:58:47;;;;;;;19.97;14.30;;;6.60;95.70;;;;;;5077121;28;20526;-44
2021/12/16 05:01:14;;;;;;;15.20;12.60;;;6.60;95.70;;;;;;5076402;28;20411;-44
2021/12/16 05:03:40;;;;;;;18.70;14.17;;;6.70;95.70;;;;;;5076401;28;20633;-47
2021/12/16 05:06:08;;;;;;;15.23;13.00;;;6.70;95.60;;;;;;5074877;28;20737;-48
2021/12/16 05:08:34;;;;;;;19.80;15.53;;;6.70;95.60;;;;;;5086421;28;20436;-47
2021/12/16 05:11:03;;;;;;;21.33;16.27;;;6.70;95.60;;;;;;5077592;28;20501;-48
2021/12/16 05:13:30;;;;;;;20.33;16.87;;;6.70;95.60;;;;;;5095253;28;20430;-48
2021/12/16 05:16:02;;;;;;;20.80;16.60;;;6.70;95.60;;;;;;5095670;28;20399;-47
2021/12/16 05:18:34;;;;;;;20.90;16.47;;;6.70;95.60;;;;;;5095087;28;20828;-47
2021/12/16 05:21:08;;;;;;;21.63;16.67;;;6.70;95.60;;;;;;5093246;28;20414;-48
2021/12/16 05:26:43;;;;;;;21.90;16.00;;;6.70;95.60;;;;;;5032204;28;20429;-47
2021/12/16 05:29:15;;;;;;;20.70;16.43;;;6.70;95.60;;;;;;5032067;28;20606;-48
2021/12/16 05:31:48;;;;;;;19.47;15.73;;;6.70;95.60;;;;;;5048488;28;20869;-47
2021/12/16 05:34:20;;;;;;;20.87;15.67;;;6.70;95.60;;;;;;5083516;28;20411;-47
2021/12/16 05:36:48;;;;;;;24.17;17.77;;;6.70;95.50;;;;;;5074877;28;20425;-47
2021/12/16 05:39:17;;;;;;;22.83;17.10;;;6.70;95.50;;;;;;5073630;28;20427;-47
2021/12/16 05:41:44;;;;;;;23.83;17.63;;;6.70;95.50;;;;;;5074060;28;20562;-47
2021/12/16 05:44:13;;;;;;;23.73;16.90;;;6.70;95.60;;;;;;5073554;28;20418;-47
2021/12/16 05:46:39;;;;;;;21.70;15.27;;;6.60;95.60;;;;;;5075120;28;20433;-47
2021/12/16 05:49:10;;;;;;;22.83;17.40;;;6.70;95.70;;;;;;5092901;28;20417;-47
2021/12/16 05:51:48;;;;;;;24.57;18.00;;;6.70;95.80;;;;;;5093086;28;20462;-47
2021/12/16 05:54:14;;;;;;;20.40;15.60;;;6.70;95.80;;;;;;5093153;28;21119;-47
2021/12/16 05:56:40;;;;;;;25.43;17.47;;;6.70;95.70;;;;;;5092922;28;20432;-47
2021/12/16 05:59:12;;;;;;;22.43;16.40;;;6.70;95.70;;;;;;5092960;28;20880;-47
2021/12/16 06:01:42;;;;;;;21.47;15.63;;;6.70;95.60;;;;;;5098243;28;20490;-47
2021/12/16 06:04:09;;;;;;;21.40;16.27;;;6.70;95.60;;;;;;5098021;28;20434;-47
2021/12/16 06:06:39;;;;;;;22.97;17.20;;;6.70;95.60;;;;;;5098183;28;20411;-48
2021/12/16 06:09:10;;;;;;;21.43;15.50;;;6.70;95.70;;;;;;5096384;28;20439;-47
2021/12/16 06:11:44;;;;;;;19.20;14.60;;;6.70;95.70;;;;;;5096532;28;20883;-48
2021/12/16 06:27:46;;;;;;;19.43;14.43;;;6.80;95.60;;;;;;5094320;28;20418;-47
2021/12/16 06:30:16;;;;;;;20.07;13.97;;;6.70;95.50;;;;;;5095444;28;20475;-47
2021/12/16 06:32:45;;;;;;;18.90;15.10;;;6.70;95.50;;;;;;5094942;28;20701;-47
2021/12/16 06:35:11;;;;;;;20.83;15.73;;;6.70;95.60;;;;;;5094686;28;20499;-47
2021/12/16 06:37:38;;;;;;;19.30;14.33;;;6.70;95.60;;;;;;5093819;28;20494;-47
2021/12/16 06:40:07;;;;;;;18.53;14.17;;;6.70;95.60;;;;;;5095128;28;20445;-47
2021/12/16 06:42:36;;;;;;;17.03;13.20;;;6.70;95.60;;;;;;5096616;28;20464;-47
2021/12/16 06:45:13;;;;;;;20.53;14.37;;;6.70;95.70;;;;;;5095803;28;20409;-47
2021/12/16 06:48:26;;;;;;;20.87;15.63;;;6.70;95.70;;;;;;5095945;28;20504;-47
2021/12/16 06:53:29;;;;;;;20.70;14.70;;;6.70;95.70;;;;;;5091001;28;20415;-47
2021/12/16 06:58:46;;;;;;;19.53;13.63;;;6.80;95.70;;;;;;5084041;28;20426;-47
2021/12/16 07:01:38;;;;;;;20.30;13.90;;;6.70;95.60;;;;;;5090454;28;20496;-47
2021/12/16 07:04:12;;;;;;;21.00;14.30;;;6.70;95.60;;;;;;5091893;28;20442;-47
2021/12/16 07:06:41;;;;;;;19.40;13.10;;;6.80;95.70;;;;;;5093273;28;20410;-47
2021/12/16 07:09:13;;;;;;;20.13;13.20;;;6.80;95.70;;;;;;5093759;28;20423;-47
2021/12/16 07:11:51;;;;;;;19.90;15.33;;;6.80;95.70;;;;;;5093162;28;20468;-47
2021/12/16 07:14:19;;;;;;;18.90;13.00;;;6.80;95.70;;;;;;5094325;28;20417;-47
2021/12/16 07:16:51;;;;;;;19.57;13.50;;;6.80;95.60;;;;;;5093550;28;20505;-47
2021/12/16 07:19:17;;;;;;;17.10;14.23;;;6.80;95.60;;;;;;5094412;28;20442;-47
2021/12/16 07:21:44;;;;;;;16.20;14.00;;;6.80;95.60;;;;;;5095178;28;20527;-47
2021/12/16 07:24:15;;;;;;;18.03;13.10;;;6.80;95.50;;;;;;5095301;28;20523;-47
2021/12/16 07:26:41;;;;;;;17.20;12.80;;;6.80;95.50;;;;;;5096312;28;20815;-47
2021/12/16 07:29:08;;;;;;;16.90;13.20;;;6.80;95.50;;;;;;5095290;28;20470;-47
2021/12/16 07:31:34;;;;;;;18.33;14.57;;;6.80;95.50;;;;;;5095468;28;20482;-47
2021/12/16 07:34:01;;;;;;;20.03;15.13;;;6.80;95.50;;;;;;5095237;28;20812;-47
2021/12/16 07:36:30;;;;;;;17.90;13.20;;;6.80;95.40;;;;;;5095375;28;20515;-47
2021/12/16 07:39:03;;;;;;;19.13;15.50;;;6.80;95.40;;;;;;5095246;28;20735;-47
2021/12/16 07:42:23;;;;;;;18.93;14.50;;;6.80;95.40;;;;;;5095857;28;20512;-47
2021/12/16 07:44:16;;;;;;;18.13;13.67;;;6.80;95.40;;;;;;5084693;28;20434;-47
2021/12/16 07:46:44;;;;;;;17.30;13.60;;;6.80;95.40;;;;;;5095005;28;20976;-47
2021/12/16 07:49:11;;;;;;;18.27;14.30;;;6.90;95.50;;;;;;5094599;28;20840;-47
2021/12/16 07:51:57;;;;;;;17.57;14.10;;;6.90;95.50;;;;;;5095225;28;20747;-47
2021/12/16 07:54:23;;;;;;;19.30;14.10;;;6.90;95.50;;;;;;5095987;28;20531;-47
2021/12/16 07:56:51;;;;;;;18.70;13.90;;;6.90;95.40;;;;;;5096176;28;20568;-47
2021/12/16 07:59:25;;;;;;;17.60;14.40;;;6.90;95.40;;;;;;5095539;28;20529;-47
2021/12/16 08:01:51;;;;;;;20.47;14.80;;;6.90;95.40;;;;;;5081188;28;20856;-47
2021/12/16 08:04:20;;;;;;;22.80;14.90;;;6.90;95.40;;;;;;5072184;28;21009;-47
2021/12/16 08:06:49;;;;;;;19.63;14.80;;;7.00;95.40;;;;;;5076997;28;20443;-47
2021/12/16 08:09:15;;;;;;;18.97;14.83;;;7.00;95.40;;;;;;5092309;28;20609;-47
2021/12/16 08:11:42;;;;;;;17.97;13.53;;;7.00;95.30;;;;;;5090201;28;20500;-47
2021/12/16 08:14:10;;;;;;;20.20;14.53;;;7.00;95.30;;;;;;5075179;28;20524;-47
2021/12/16 08:16:38;;;;;;;19.57;13.97;;;7.00;95.30;;;;;;5090106;28;20435;-47
2021/12/16 08:19:04;;;;;;;21.07;14.43;;;7.00;95.20;;;;;;5073954;28;20752;-47
2021/12/16 08:21:30;;;;;;;19.17;13.60;;;7.10;95.30;;;;;;5073622;28;20434;-47
2021/12/16 08:23:58;;;;;;;18.90;13.10;;;7.10;95.30;;;;;;5072658;28;20451;-47
2021/12/16 08:26:24;;;;;;;20.10;14.50;;;7.10;95.20;;;;;;5085662;28;20451;-47
2021/12/16 08:28:50;;;;;;;20.53;15.30;;;7.10;95.20;;;;;;5071540;28;20530;-47
2021/12/16 08:31:16;;;;;;;18.30;13.90;;;7.10;95.20;;;;;;5073103;28;20498;-47
2021/12/16 08:33:58;;;;;;;21.00;15.83;;;7.10;95.10;;;;;;5072637;28;20412;-47
2021/12/16 08:36:26;;;;;;;19.00;13.90;;;7.10;95.10;;;;;;5072986;28;20813;-47
2021/12/16 08:38:53;;;;;;;20.40;14.90;;;7.10;95.10;;;;;;5071899;28;20415;-48
2021/12/16 08:41:23;;;;;;;17.47;13.57;;;7.20;95.20;;;;;;5072117;28;20467;-47
2021/12/16 08:43:49;;;;;;;17.43;13.53;;;7.20;95.10;;;;;;5073881;28;20697;-46
2021/12/16 08:46:38;;;;;;;18.10;14.23;;;7.30;95.10;;;;;;5072709;28;20459;-47
2021/12/16 08:49:04;;;;;;;20.03;14.57;;;7.30;95.00;;;;;;5072951;28;20779;-47
2021/12/16 08:51:40;;;;;;;21.97;15.20;;;7.30;95.00;;;;;;5074768;28;20482;-47
2021/12/16 08:54:06;;;;;;;21.10;15.33;;;7.30;95.00;;;;;;5074842;28;20180;-47
2021/12/16 08:56:33;;;;;;;17.50;13.00;;;7.40;95.00;;;;;;5075098;28;20798;-47
2021/12/16 08:59:00;;;;;;;21.27;14.80;;;7.40;95.00;;;;;;5075466;28;20440;-47
2021/12/16 09:01:29;;;;;;;20.80;15.23;;;7.40;94.90;;;;;;5074731;28;20848;-47
2021/12/16 09:04:01;;;;;;;21.67;15.77;;;7.50;94.90;;;;;;5073889;28;20414;-47
2021/12/16 09:06:27;;;;;;;19.70;14.27;;;7.50;94.90;;;;;;5074528;28;20467;-47
2021/12/16 09:08:57;;;;;;;20.63;15.43;;;7.50;94.80;;;;;;5074229;28;20902;-47
2021/12/16 09:11:25;;;;;;;19.90;14.23;;;7.60;94.80;;;;;;5074488;28;20486;-47
2021/12/16 09:14:02;;;;;;;18.07;13.93;;;7.60;94.70;;;;;;5071675;28;20821;-47
2021/12/16 09:16:31;;;;;;;16.50;13.10;;;7.70;94.70;;;;;;5072367;28;20485;-47
2021/12/16 09:18:58;;;;;;;18.97;14.63;;;7.70;94.60;;;;;;5073291;28;20860;-48
2021/12/16 09:21:31;;;;;;;16.37;12.40;;;7.80;94.60;;;;;;5077644;28;20445;-47
2021/12/16 09:23:58;;;;;;;20.63;14.70;;;7.80;94.50;;;;;;5080219;28;20439;-47
2021/12/16 09:26:25;;;;;;;16.97;12.53;;;7.90;94.50;;;;;;5076425;28;20725;-47
2021/12/16 09:28:51;;;;;;;20.10;14.47;;;7.90;94.40;;;;;;5076530;28;20967;-47
2021/12/16 09:31:19;;;;;;;18.13;14.57;;;7.90;94.30;;;;;;5076341;28;20509;-47
2021/12/16 09:33:50;;;;;;;20.77;14.20;;;7.90;94.30;;;;;;5075681;28;20408;-47
2021/12/16 09:36:19;;;;;;;19.17;14.37;;;7.90;94.20;;;;;;5078658;28;20424;-47
2021/12/16 09:38:46;;;;;;;19.10;14.70;;;8.00;94.20;;;;;;5080086;28;20818;-47
2021/12/16 09:41:12;;;;;;;19.10;13.30;;;8.10;94.20;;;;;;5079531;28;20441;-47
2021/12/16 09:43:43;;;;;;;17.73;12.40;;;8.10;94.10;;;;;;5078627;28;20416;-47
2021/12/16 09:46:12;;;;;;;19.13;12.97;;;8.10;94.00;;;;;;5078559;28;20423;-47
2021/12/16 09:48:41;;;;;;;17.27;12.60;;;8.20;94.00;;;;;;5095845;28;20409;-47
2021/12/16 09:51:10;;;;;;;16.80;12.67;;;8.30;93.90;;;;;;5077490;28;20466;-47
2021/12/16 09:53:45;;;;;;;16.20;12.30;;;8.30;93.90;;;;;;5077371;28;20429;-47
2021/12/16 09:56:10;;;;;;;15.47;12.13;;;8.40;93.80;;;;;;5075091;28;20415;-47
2021/12/16 09:58:45;;;;;;;18.77;13.00;;;8.40;93.80;;;;;;5076293;28;20832;-47
2021/12/16 10:01:15;;;;;;;17.40;12.43;;;8.50;93.80;;;;;;5077176;28;20223;-47
2021/12/16 10:03:44;;;;;;;18.97;13.30;;;8.60;93.70;;;;;;5076954;28;20434;-47
2021/12/16 10:06:11;;;;;;;16.03;12.00;;;8.60;93.60;;;;;;5077194;28;20446;-47
2021/12/16 10:08:39;;;;;;;5.60;4.10;;;8.70;93.50;;;;;;5076507;28;20600;-45
2021/12/16 10:11:06;;;;;;;3.73;2.63;;;9.10;98.40;;;;;;5077077;28;20478;-47
2021/12/16 10:19:03;;;;;;;10.13;4.07;;;11.60;99.90;;;;;;5076863;28;20577;-47
2021/12/16 10:21:30;;;;;;;9.30;4.10;;;12.20;99.20;;;;;;5087550;28;20738;-47
2021/12/16 10:23:56;;;;;;;6.37;3.33;;;12.70;98.00;;;;;;5109955;27;20226;-47
2021/12/16 10:26:24;;;;;;;10.33;4.40;;;13.10;97.00;;;;;;5138350;27;20430;-47
2021/12/16 10:28:56;;;;;;;19.03;5.40;;;13.60;95.70;;;;;;5136284;27;20571;-47
2021/12/16 10:31:31;;;;;;;13.50;5.00;;;13.90;94.80;;;;;;5135871;27;20901;-47
2021/12/16 10:33:57;;;;;;;10.77;4.60;;;14.20;94.00;;;;;;5135999;27;20432;-47
2021/12/16 10:36:29;;;;;;;12.90;4.00;;;14.40;93.50;;;;;;5137832;27;20420;-47
2021/12/16 10:39:15;;;;;;;7.00;4.40;;;14.70;93.00;;;;;;5118503;28;20508;-47
2021/12/16 10:41:49;;;;;;;7.83;3.67;;;14.90;92.30;;;;;;5137709;27;20437;-47
2021/12/16 10:44:17;;;;;;;5.57;3.77;;;15.10;91.90;;;;;;5119701;27;20423;-47
2021/12/16 10:46:50;;;;;;;7.87;4.50;;;15.20;91.30;;;;;;5117319;28;20548;-47
2021/12/16 10:49:24;;;;;;;6.10;4.17;;;15.30;90.90;;;;;;5116703;28;20417;-47
2021/12/16 10:51:54;;;;;;;12.60;4.70;;;15.50;90.60;;;;;;5117168;28;20714;-47
2021/12/16 10:54:34;;;;;;;5.80;4.57;;;15.60;90.20;;;;;;5116006;28;20992;-47
2021/12/16 10:57:04;;;;;;;20.47;5.10;;;15.60;89.80;;;;;;5115316;28;20844;-48
2021/12/16 10:59:35;;;;;;;5.20;4.20;;;15.70;89.20;;;;;;5115235;28;20409;-47
2021/12/16 11:02:19;;;;;;;7.23;4.30;;;15.80;88.60;;;;;;5113870;28;20418;-47
2021/12/16 11:04:48;;;;;;;6.03;4.40;;;15.80;87.90;;;;;;5115643;28;20803;-48
2021/12/16 11:07:20;;;;;;;4.83;4.20;;;15.90;87.70;;;;;;5117128;28;20734;-48
2021/12/16 11:09:47;;;;;;;5.13;4.57;;;15.90;87.30;;;;;;5099663;28;20466;-48
2021/12/16 11:12:47;;;;;;;5.93;4.20;;;15.90;86.90;;;;;;5115642;28;20818;-48
2021/12/16 11:15:20;;;;;;;4.10;3.70;;;15.90;86.40;;;;;;5082056;28;20429;-43
2021/12/16 11:17:51;;;;;;;4.90;3.70;;;15.90;86.20;;;;;;5114311;28;20699;-42
2021/12/16 11:20:23;;;;;;;5.30;4.17;;;15.90;86.20;;;;;;5113910;28;20908;-44
2021/12/16 11:22:54;;;;;;;5.50;4.53;;;15.90;85.90;;;;;;5115516;28;20442;-42
2021/12/16 11:25:38;;;;;;;5.87;3.93;;;15.90;85.30;;;;;;5115946;28;20581;-42
2021/12/16 11:28:28;;;;;;;4.73;3.50;;;15.80;85.10;;;;;;5114237;28;20588;-42
2021/12/16 11:31:01;;;;;;;5.53;3.90;;;15.80;85.20;;;;;;5098939;28;20492;-41
2021/12/16 11:33:39;;;;;;;5.17;4.03;;;15.90;85.40;;;;;;5117592;28;20430;-43
2021/12/16 11:36:23;;;;;;;5.47;4.13;;;15.90;85.20;;;;;;5118874;28;20432;-44
2021/12/16 11:38:55;;;;;;;4.07;3.67;;;16.00;85.00;;;;;;5118325;28;20427;-42
2021/12/16 11:41:21;;;;;;;4.83;3.83;;;16.00;84.60;;;;;;5116343;28;20701;-41
2021/12/16 11:43:49;;;;;;;6.30;5.03;;;16.10;84.30;;;;;;5116490;28;20520;-40
2021/12/16 11:46:20;;;;;;;5.80;5.20;;;16.00;83.50;;;;;;5117573;28;20547;-40
2021/12/16 11:48:46;;;;;;;8.40;7.50;;;15.80;82.30;;;;;;5099334;28;20544;-41
2021/12/16 11:51:20;;;;;;;10.20;8.23;;;15.40;81.00;;;;;;5117074;28;20467;-40
2021/12/16 11:53:53;;;;;;;12.33;8.00;;;15.00;80.10;;;;;;5117770;28;20243;-41
2021/12/16 11:56:21;;;;;;;11.20;7.93;;;14.60;79.80;;;;;;5115993;28;20405;-43
2021/12/16 11:58:48;;;;;;;10.50;8.87;;;14.20;79.90;;;;;;5116423;28;20452;-40
2021/12/16 12:01:17;;;;;;;9.90;8.53;;;13.90;80.80;;;;;;5117546;28;20487;-40
2021/12/16 12:03:46;;;;;;;9.73;8.57;;;13.60;80.50;;;;;;5116767;28;20464;-41
2021/12/16 12:06:23;;;;;;;10.10;8.47;;;13.40;80.70;;;;;;5116427;28;20937;-40
2021/12/16 12:08:53;;;;;;;10.83;8.27;;;13.10;80.90;;;;;;5112793;28;20437;-40
2021/12/16 12:11:30;;;;;;;9.40;8.33;;;12.90;81.30;;;;;;5095167;28;20542;-41
2021/12/16 12:14:02;;;;;;;9.70;8.70;;;12.80;81.70;;;;;;5095173;28;20472;-42
2021/12/16 12:16:35;;;;;;;10.53;9.13;;;12.70;82.00;;;;;;5113730;28;20427;-41
2021/12/16 12:19:18;;;;;;;13.60;10.90;;;12.50;82.10;;;;;;5096204;28;20729;-43
2021/12/16 12:21:54;;;;;;;13.33;11.50;;;12.50;82.60;;;;;;5114319;28;20530;-40
2021/12/16 12:24:31;;;;;;;13.43;11.40;;;12.40;82.70;;;;;;5114348;28;20476;-42
2021/12/16 12:26:59;;;;;;;10.87;9.10;;;12.30;82.70;;;;;;5115193;28;20428;-41
2021/12/16 12:29:28;;;;;;;10.50;8.80;;;12.30;82.80;;;;;;5116002;28;20680;-44
2021/12/16 12:32:03;;;;;;;10.60;9.10;;;12.20;82.80;;;;;;5114857;28;20453;-41
2021/12/16 12:34:30;;;;;;;10.73;8.07;;;12.20;82.80;;;;;;5098872;28;20726;-46
2021/12/16 12:37:00;;;;;;;10.30;8.87;;;12.10;82.70;;;;;;5098450;28;20429;-43
2021/12/16 12:39:36;;;;;;;8.63;7.53;;;12.10;82.50;;;;;;5115977;28;20429;-42
2021/12/16 12:42:02;;;;;;;9.83;8.03;;;12.10;82.40;;;;;;5114976;28;20418;-42
2021/12/16 12:44:28;;;;;;;8.93;7.40;;;12.00;82.20;;;;;;5096221;28;20417;-43
2021/12/16 12:46:54;;;;;;;8.43;7.10;;;12.00;82.10;;;;;;5114294;28;20422;-43
2021/12/16 12:49:25;;;;;;;10.70;8.50;;;12.00;82.00;;;;;;5111152;28;20234;-43
2021/12/16 12:51:59;;;;;;;8.90;7.30;;;12.00;81.90;;;;;;5124333;27;20465;-43
2021/12/16 12:54:28;;;;;;;10.83;8.50;;;12.00;81.90;;;;;;5114704;27;20427;-42
2021/12/16 12:57:00;;;;;;;9.80;8.57;;;12.00;82.00;;;;;;5131072;27;20513;-42
2021/12/16 12:59:40;;;;;;;11.83;8.47;;;12.00;82.00;;;;;;5130087;27;20411;-42
2021/12/16 13:02:15;;;;;;;11.60;8.70;;;12.10;82.20;;;;;;5131475;27;20451;-42
2021/12/16 13:05:25;;;;;;;10.73;9.17;;;12.10;82.30;;;;;;5131657;27;20977;-41
2021/12/16 13:08:04;;;;;;;11.87;9.83;;;12.10;82.50;;;;;;5133004;27;20439;-44
2021/12/16 13:10:38;;;;;;;11.87;10.47;;;12.00;82.60;;;;;;5117680;27;20507;-41
2021/12/16 13:13:35;;;;;;;11.27;9.30;;;12.00;82.70;;;;;;5120380;27;20433;-41
2021/12/16 13:29:39;;;;;;;12.00;10.13;;;11.90;83.60;;;;;;5139657;27;20410;-42
2021/12/16 13:32:26;;;;;;;11.53;9.50;;;11.90;83.90;;;;;;5123140;27;20168;-41
2021/12/16 13:35:04;;;;;;;12.10;9.93;;;11.90;84.00;;;;;;5139308;27;20838;-42
2021/12/16 13:37:39;;;;;;;11.70;10.23;;;11.80;84.00;;;;;;5123356;27;20420;-43
2021/12/16 13:40:19;;;;;;;11.30;10.10;;;11.80;84.10;;;;;;5139987;27;20404;-40
2021/12/16 13:42:56;;;;;;;11.10;9.17;;;11.80;84.20;;;;;;5138614;27;20431;-41
2021/12/16 13:45:35;;;;;;;10.47;8.50;;;11.80;84.30;;;;;;5119068;27;20496;-41
2021/12/16 13:48:14;;;;;;;10.37;8.93;;;11.80;84.40;;;;;;5119215;27;20438;-39
2021/12/16 14:01:56;;;;;;;10.57;9.37;;;11.60;84.90;;;;;;5138601;27;20416;-42
2021/12/16 14:04:51;;;;;;;11.37;10.17;;;11.60;85.10;;;;;;5130383;27;20416;-41
2021/12/16 14:10:12;;;;;;;13.90;10.60;;;11.40;85.40;;;;;;5129954;27;20536;-43
2021/12/16 14:14:02;;;;;;;11.17;9.97;;;11.40;85.70;;;;;;5127832;27;20510;-41
2021/12/16 14:16:00;;;;;;;11.47;9.47;;;11.30;85.90;;;;;;5129598;27;20853;-42
2021/12/16 14:45:13;;;;;;;16.43;13.13;;;10.60;88.30;;;;;;5128286;27;20445;-41
2021/12/16 14:49:47;;;;;;;14.27;11.57;;;10.50;88.80;;;;;;5125200;27;20433;-40
2021/12/16 14:52:20;;;;;;;14.47;11.77;;;10.50;89.10;;;;;;5126000;27;20420;-41
2021/12/16 14:54:55;;;;;;;14.03;12.03;;;10.50;89.30;;;;;;5125498;27;21069;-39
2021/12/16 14:57:42;;;;;;;14.20;11.90;;;10.50;89.60;;;;;;5125813;27;20705;-39
2021/12/16 15:00:29;;;;;;;14.17;11.03;;;10.40;89.80;;;;;;5124861;27;20428;-43
2021/12/16 15:03:08;;;;;;;12.40;11.07;;;10.40;90.00;;;;;;5124799;27;20424;-42
2021/12/16 15:05:40;;;;;;;13.03;11.53;;;10.30;90.00;;;;;;5108104;27;20424;-43
2021/12/16 15:08:38;;;;;;;12.97;10.43;;;10.30;90.10;;;;;;5126194;27;20414;-40
2021/12/16 15:11:08;;;;;;;15.03;11.00;;;10.20;90.20;;;;;;5129745;27;20548;-41
2021/12/16 15:13:42;;;;;;;12.33;10.10;;;10.20;90.30;;;;;;5101569;27;20427;-43
2021/12/16 15:17:03;;;;;;;12.90;10.80;;;10.10;90.30;;;;;;5136288;27;20429;-40
2021/12/16 15:38:46;;;;;;;11.77;10.60;;;9.70;91.70;;;;;;5136990;27;20424;-40
2021/12/16 15:43:57;;;;;;;13.30;11.00;;;9.50;91.80;;;;;;5135796;27;20412;-40
2021/12/16 15:46:27;;;;;;;13.23;11.30;;;9.50;91.90;;;;;;5135804;27;20909;-40
2021/12/16 15:48:54;;;;;;;13.33;10.43;;;9.40;91.90;;;;;;5136819;27;20476;-43
2021/12/16 15:51:22;;;;;;;13.40;10.60;;;9.30;92.30;;;;;;5136021;27;20743;-41
2021/12/16 15:53:53;;;;;;;12.70;10.73;;;9.30;92.10;;;;;;5136294;27;20466;-42
2021/12/16 15:56:41;;;;;;;14.37;11.80;;;9.20;92.10;;;;;;5136486;27;20888;-41
2021/12/16 15:59:11;;;;;;;13.70;11.10;;;9.10;92.20;;;;;;5138025;27;20440;-41
2021/12/16 16:01:47;;;;;;;12.63;11.20;;;9.00;92.20;;;;;;5136755;27;20421;-41
2021/12/16 16:04:32;;;;;;;15.00;12.33;;;9.00;92.30;;;;;;5136033;27;20853;-41
2021/12/16 16:07:04;;;;;;;12.60;10.87;;;8.90;92.30;;;;;;5134800;27;20424;-40
2021/12/16 16:09:47;;;;;;;15.33;13.20;;;8.80;92.40;;;;;;5135409;27;20408;-35
2021/12/16 16:12:18;;;;;;;16.47;12.63;;;8.70;92.40;;;;;;5135879;27;20762;-44
2021/12/16 16:14:46;;;;;;;13.43;11.80;;;8.70;92.50;;;;;;5136630;27;20721;-44
2021/12/16 16:17:18;;;;;;;14.70;12.47;;;8.60;92.60;;;;;;5136770;27;21116;-45
2021/12/16 16:19:46;;;;;;;16.00;12.97;;;8.50;92.50;;;;;;5135339;27;20688;-45
2021/12/16 16:22:15;;;;;;;15.30;12.63;;;8.50;92.60;;;;;;5135313;27;20851;-45
2021/12/16 16:24:47;;;;;;;13.93;11.60;;;8.40;92.50;;;;;;5135188;27;20464;-45
2021/12/16 16:27:25;;;;;;;14.03;11.63;;;8.30;92.50;;;;;;5136845;27;20413;-45
2021/12/16 16:29:54;;;;;;;12.47;10.93;;;8.20;92.60;;;;;;5137422;27;20477;-45
2021/12/16 16:32:28;;;;;;;14.10;12.57;;;8.20;92.70;;;;;;5130678;27;20428;-44
2021/12/16 16:34:58;;;;;;;15.00;12.47;;;8.10;92.70;;;;;;5108290;27;20416;-45
2021/12/16 16:37:30;;;;;;;16.63;13.13;;;8.00;92.80;;;;;;5107845;27;20526;-45
2021/12/16 16:39:59;;;;;;;16.30;13.67;;;7.90;92.80;;;;;;5126744;27;20492;-45
2021/12/16 16:42:41;;;;;;;14.40;12.27;;;7.80;92.90;;;;;;5114454;27;20442;-45
2021/12/16 16:45:18;;;;;;;13.40;11.90;;;7.80;93.00;;;;;;5126328;27;20428;-45
2021/12/16 16:47:52;;;;;;;14.00;11.60;;;7.70;93.00;;;;;;5106712;27;20505;-45
2021/12/16 16:50:20;;;;;;;13.77;11.70;;;7.70;93.10;;;;;;5107555;28;20577;-44
2021/12/16 16:52:51;;;;;;;12.87;11.13;;;7.60;93.10;;;;;;5133823;27;20466;-45
2021/12/16 16:55:20;;;;;;;13.13;11.20;;;7.50;93.10;;;;;;5132762;27;20681;-44
2021/12/16 16:57:53;;;;;;;14.83;11.40;;;7.50;93.20;;;;;;5131843;27;20431;-45
2021/12/16 17:00:33;;;;;;;13.30;11.50;;;7.40;93.20;;;;;;5118747;27;20444;-45
2021/12/16 17:03:05;;;;;;;13.33;11.73;;;7.40;93.30;;;;;;5113136;28;20428;-45
2021/12/16 17:05:38;;;;;;;15.20;11.33;;;7.40;93.30;;;;;;5093881;28;20421;-45